Time;durP1;ratioP1;P1;durP2;ratioP2;P2;SDS_P1;SDS_P2;PMS_P1;PMS_P2;Temp;Humidity;BMP_temperature;BMP_pressure;BME280_temperature;BME280_humidity;BME280_pressure;Samples;Min_cycle;Max_cycle;Signal;HPM_P1;HPM_P2
2022/08/14 09:24:38;;;;;;;7.10;3.40;;;;;;;29.93;43.54;101182.75;5051633;28;20387;-84
2022/08/14 09:27:04;;;;;;;11.10;3.60;;;;;;;30.37;41.56;101171.16;5050702;28;20029;-80
2022/08/14 09:29:29;;;;;;;8.15;3.40;;;;;;;31.02;41.29;101174.56;5049360;28;20116;-84
2022/08/14 09:31:58;;;;;;;8.10;3.70;;;;;;;31.90;41.89;101173.50;5049240;28;20035;-85
2022/08/14 09:34:39;;;;;;;7.20;3.40;;;;;;;33.94;39.15;101175.34;5050733;28;20017;-84
2022/08/14 09:37:30;;;;;;;9.57;3.53;;;;;;;35.97;34.29;101177.28;5050823;28;20025;-85
2022/08/14 09:40:10;;;;;;;;;;;;;;;37.37;31.69;101165.84;5049661;28;20021;-85
2022/08/14 09:43:29;;;;;;;12.02;3.70;;;;;;;38.37;29.79;101177.13;5050638;28;19909;-85
2022/08/14 09:45:57;;;;;;;6.70;3.30;;;;;;;38.01;30.29;101172.84;5048297;28;20040;-85
2022/08/14 09:48:24;;;;;;;8.90;3.33;;;;;;;37.46;30.04;101167.38;5031473;28;20037;-85
2022/08/14 09:50:53;;;;;;;13.27;3.45;;;;;;;37.25;32.05;101162.81;5049248;28;20508;-85
2022/08/14 09:53:40;;;;;;;11.02;3.15;;;;;;;37.58;31.01;101156.69;5050172;28;20057;-85
2022/08/14 09:56:06;;;;;;;9.15;3.92;;;;;;;36.85;30.52;101148.91;5050145;28;20024;-85
2022/08/14 09:58:38;;;;;;;11.90;3.65;;;;;;;36.33;31.88;101149.09;5050062;28;20029;-85
2022/08/14 10:01:20;;;;;;;10.00;3.42;;;;;;;36.82;32.47;101132.88;5050047;28;20025;-85
2022/08/14 10:03:55;;;;;;;17.02;8.40;;;;;;;37.89;31.17;101136.13;5050010;28;20021;-86
2022/08/14 10:06:28;;;;;;;9.45;4.65;;;;;;;38.98;28.05;101130.47;5050276;28;20099;-84
2022/08/14 10:08:53;;;;;;;7.95;3.80;;;;;;;39.51;27.72;101132.22;5050455;28;20025;-85
2022/08/14 10:11:21;;;;;;;7.95;3.70;;;;;;;39.06;26.98;101125.56;5049984;28;20440;-85
2022/08/14 10:13:53;;;;;;;6.97;3.22;;;;;;;38.85;27.29;101118.47;5048508;28;20029;-84
2022/08/14 10:16:24;;;;;;;8.57;3.80;;;;;;;38.86;27.79;101114.66;5049998;28;20037;-84
2022/08/14 10:19:01;;;;;;;9.57;3.70;;;;;;;39.07;27.91;101113.53;5050003;28;20025;-85
2022/08/14 10:21:26;;;;;;;9.85;3.80;;;;;;;39.50;27.11;101114.03;5048318;28;20025;-83
2022/08/14 10:23:51;;;;;;;6.93;3.70;;;;;;;39.86;26.41;101110.66;5048218;28;20044;-83
2022/08/14 10:26:18;;;;;;;5.28;3.60;;;;;;;41.29;24.33;101109.97;5049544;28;20101;-84
2022/08/14 10:28:49;;;;;;;6.80;3.20;;;;;;;40.99;24.15;101094.25;5049534;28;20032;-82
2022/08/14 10:31:30;;;;;;;9.23;4.10;;;;;;;42.66;22.24;101103.91;5049543;28;20029;-85
2022/08/14 10:33:59;;;;;;;10.73;3.60;;;;;;;43.00;22.67;101107.66;5047954;28;20071;-83
2022/08/14 10:36:30;;;;;;;7.38;3.40;;;;;;;44.89;19.85;101105.72;5035192;28;20045;-83
2022/08/14 10:38:57;;;;;;;5.30;3.60;;;;;;;44.00;19.99;101107.44;5036166;28;20017;-83
2022/08/14 10:41:39;;;;;;;5.97;3.42;;;;;;;44.41;21.44;101091.50;5034698;28;20036;-83
2022/08/14 10:44:07;;;;;;;9.85;3.47;;;;;;;44.34;18.24;101090.00;5035978;28;20021;-83
2022/08/14 10:46:43;;;;;;;7.28;3.70;;;;;;;45.19;20.14;101093.38;5034689;28;20033;-83
2022/08/14 10:49:21;;;;;;;7.65;4.68;;;;;;;46.33;17.90;101087.00;5035963;28;20152;-85
2022/08/14 10:52:05;;;;;;;6.53;3.40;;;;;;;46.12;17.44;101086.81;5034568;28;20021;-84
2022/08/14 10:54:47;;;;;;;5.07;4.30;;;;;;;44.76;19.02;101078.44;5036155;28;20156;-82
2022/08/14 10:57:19;;;;;;;6.38;4.18;;;;;;;42.80;20.55;101079.63;5036155;28;20022;-81
2022/08/14 10:59:49;;;;;;;7.93;3.55;;;;;;;41.42;24.10;101068.53;5035741;28;20029;-83
2022/08/14 11:02:28;;;;;;;5.65;3.83;;;;;;;40.39;24.89;101068.16;5035804;28;20048;-83
2022/08/14 11:05:14;;;;;;;8.00;4.63;;;;;;;38.99;24.79;101052.56;5035720;28;20025;-81
2022/08/14 11:07:59;;;;;;;6.18;4.22;;;;;;;36.89;28.46;101062.63;5035638;28;20029;-81
2022/08/14 11:10:59;;;;;;;5.75;4.10;;;;;;;36.88;29.29;101059.03;5035554;28;20084;-81
2022/08/14 11:13:27;;;;;;;6.72;4.43;;;;;;;36.51;30.74;101047.44;5034554;28;20033;-81
2022/08/14 11:16:00;;;;;;;8.13;4.60;;;;;;;36.43;29.79;101050.31;5035746;28;20036;-82
2022/08/14 11:18:27;;;;;;;8.98;4.63;;;;;;;35.94;31.21;101062.94;5035406;28;20032;-82
2022/08/14 11:20:55;;;;;;;9.73;4.85;;;;;;;35.93;31.17;101060.41;5035386;28;20487;-82
2022/08/14 11:23:32;;;;;;;12.75;5.00;;;;;;;35.65;31.62;101058.41;5035357;28;20033;-83
2022/08/14 11:25:59;;;;;;;8.07;5.13;;;;;;;35.23;33.04;101055.38;5035386;28;20112;-82
2022/08/14 11:28:27;;;;;;;10.70;4.82;;;;;;;35.07;32.35;101050.13;5035442;28;20021;-81
2022/08/14 11:30:55;;;;;;;8.32;4.45;;;;;;;34.45;32.37;101050.31;5035044;28;20107;-81
2022/08/14 11:33:29;;;;;;;14.23;4.93;;;;;;;34.47;32.43;101040.06;5035085;28;20061;-80
2022/08/14 11:35:59;;;;;;;9.57;4.75;;;;;;;34.70;34.31;101039.16;5035107;28;20021;-81
2022/08/14 11:38:25;;;;;;;7.75;4.30;;;;;;;34.90;34.73;101035.88;5035001;28;20104;-80
2022/08/14 11:40:50;;;;;;;9.00;4.53;;;;;;;34.93;33.44;101039.06;5034944;28;20032;-80
2022/08/14 11:43:17;;;;;;;7.93;5.00;;;;;;;34.66;34.76;101022.31;5033810;28;20025;-81
2022/08/14 11:45:47;;;;;;;5.35;4.50;;;;;;;35.20;35.54;101028.50;5034809;28;20112;-81
2022/08/14 11:48:19;;;;;;;11.68;4.80;;;;;;;34.95;33.56;101026.09;5034561;28;20032;-81
2022/08/14 11:50:46;;;;;;;8.13;4.90;;;;;;;34.85;31.71;101020.91;5034946;28;20060;-81
2022/08/14 11:53:21;;;;;;;9.15;5.25;;;;;;;34.64;32.38;101021.63;5035035;28;20116;-81
2022/08/14 11:55:53;;;;;;;8.73;5.18;;;;;;;34.95;33.22;101015.16;5033489;28;20075;-81
2022/08/14 11:58:33;;;;;;;7.40;5.35;;;;;;;35.04;31.08;100994.06;5034618;28;20499;-82
2022/08/14 12:01:05;;;;;;;11.75;5.03;;;;;;;35.20;31.59;101012.94;5034735;28;20025;-86
2022/08/14 12:03:40;;;;;;;7.65;4.78;;;;;;;34.97;32.73;100993.16;5034754;28;20021;-86
2022/08/14 12:06:11;;;;;;;7.88;5.22;;;;;;;34.83;32.97;101013.97;5034557;28;20393;-85
2022/08/14 12:08:38;;;;;;;9.98;5.20;;;;;;;34.36;33.65;101003.19;5033209;28;20461;-86
2022/08/14 12:11:05;;;;;;;8.90;5.05;;;;;;;34.78;36.37;101009.06;5034239;28;20063;-86
2022/08/14 12:13:31;;;;;;;11.75;5.30;;;;;;;34.99;32.38;101007.44;5034299;28;20018;-84
2022/08/14 12:16:04;;;;;;;9.00;5.10;;;;;;;35.02;32.05;100998.88;5034568;28;20022;-85
2022/08/14 12:18:31;;;;;;;7.88;5.13;;;;;;;34.95;31.20;101000.69;5034188;28;20029;-87
2022/08/14 12:21:17;;;;;;;9.90;5.38;;;;;;;34.50;39.66;101008.84;5035742;28;20032;-94
2022/08/14 12:23:44;;;;;;;10.73;5.22;;;;;;;32.65;42.40;100990.50;5036305;28;20048;-93
2022/08/14 12:26:16;;;;;;;16.10;5.47;;;;;;;32.48;36.31;100979.69;5037138;28;20022;-91
2022/08/14 12:29:09;;;;;;;26.42;5.85;;;;;;;32.18;35.90;100968.53;5042743;28;20026;-96
2022/08/14 12:31:47;;;;;;;12.00;5.05;;;;;;;32.00;36.76;100974.13;5040982;28;20028;-96
2022/08/14 12:34:16;;;;;;;10.18;5.70;;;;;;;31.80;36.76;100964.63;5040799;28;20013;-92
2022/08/14 13:40:12;;;;;;;6.88;5.85;;;;;;;32.15;37.87;100886.53;5186504;22;20405;-79
2022/08/14 13:42:43;;;;;;;9.60;5.85;;;;;;;33.43;35.26;100868.22;5030558;28;20041;-78
2022/08/14 13:45:10;;;;;;;36.30;6.57;;;;;;;33.96;32.25;100862.81;5030712;28;20427;-77
2022/08/14 13:47:38;;;;;;;6.63;5.25;;;;;;;33.84;32.51;100857.78;5030282;28;20104;-77
2022/08/14 13:50:07;;;;;;;8.38;5.53;;;;;;;35.02;30.36;100851.56;5030246;28;20026;-75
2022/08/14 13:52:43;;;;;;;21.08;5.40;;;;;;;35.96;28.56;100860.56;5030096;28;20017;-74
2022/08/14 13:55:09;;;;;;;6.63;5.25;;;;;;;35.98;27.52;100847.53;5030512;28;20029;-73
2022/08/14 13:57:39;;;;;;;9.98;5.63;;;;;;;36.58;26.42;100855.22;5012336;28;20536;-73
2022/08/14 14:00:10;;;;;;;9.57;5.13;;;;;;;37.09;26.04;100851.97;5012371;28;20037;-74
2022/08/14 14:02:44;;;;;;;8.13;5.18;;;;;;;37.12;25.27;100837.03;5012227;28;20113;-73
2022/08/14 14:05:13;;;;;;;8.00;5.80;;;;;;;36.52;25.78;100840.47;5012259;28;20473;-73
2022/08/14 14:07:45;;;;;;;7.90;4.95;;;;;;;36.40;26.44;100829.28;5030204;28;20025;-73
2022/08/14 14:10:12;;;;;;;9.88;5.40;;;;;;;37.79;24.75;100826.09;5030105;28;20040;-73
2022/08/14 14:12:39;;;;;;;9.60;5.18;;;;;;;37.68;24.04;100814.72;5029730;28;20030;-71
2022/08/14 14:15:11;;;;;;;7.93;5.60;;;;;;;36.36;26.11;100806.97;5044434;22;20111;-71
2022/08/14 14:17:38;;;;;;;12.15;5.85;;;;;;;37.13;25.20;100801.25;5029577;28;20125;-71
2022/08/14 14:20:06;;;;;;;7.10;4.70;;;;;;;37.08;24.50;100802.94;5029405;28;20025;-71
2022/08/14 14:22:39;;;;;;;9.60;5.05;;;;;;;37.00;25.04;100799.34;5029373;28;20024;-70
2022/08/14 14:25:05;;;;;;;6.57;4.93;;;;;;;36.50;26.07;100804.28;5011500;28;20060;-70
2022/08/14 14:27:35;;;;;;;6.47;5.07;;;;;;;36.52;26.16;100796.72;5011768;28;20065;-69
2022/08/14 14:30:02;;;;;;;8.95;5.70;;;;;;;35.29;26.92;100794.50;5029325;28;20030;-69
2022/08/14 14:32:30;;;;;;;9.38;5.40;;;;;;;35.48;26.92;100785.63;5029132;28;20343;-68
2022/08/14 14:35:00;;;;;;;8.65;5.10;;;;;;;35.71;27.67;100790.00;5029080;28;20040;-70
2022/08/14 14:37:26;;;;;;;9.50;5.53;;;;;;;35.27;27.44;100783.78;5029016;28;20022;-68
2022/08/14 14:39:54;;;;;;;9.65;5.40;;;;;;;35.19;27.51;100781.19;5007512;28;20030;-69
2022/08/14 14:42:23;;;;;;;6.93;5.82;;;;;;;34.32;28.29;100781.16;5016207;28;20140;-71
2022/08/14 14:44:51;;;;;;;10.38;5.45;;;;;;;34.15;29.01;100777.78;5015816;28;20044;-69
2022/08/14 14:47:21;;;;;;;8.50;5.47;;;;;;;33.63;29.09;100776.00;5016024;28;20109;-69
2022/08/14 14:49:48;;;;;;;9.57;5.85;;;;;;;33.89;29.36;100772.84;5015919;28;20029;-71
2022/08/14 14:52:14;;;;;;;8.90;6.05;;;;;;;33.72;29.18;100774.03;5015714;28;20022;-70
2022/08/14 14:54:42;;;;;;;7.38;5.63;;;;;;;33.57;29.64;100763.97;5015605;28;20469;-69
2022/08/14 14:57:12;;;;;;;8.57;5.80;;;;;;;33.12;30.63;100768.47;5015673;28;20491;-69
2022/08/14 14:59:38;;;;;;;;;;;;;;;33.21;30.63;100769.25;5016155;28;20068;-70
2022/08/14 15:02:05;;;;;;;10.57;5.40;;;;;;;33.52;30.08;100755.53;5015922;28;19914;-71
2022/08/14 15:04:34;;;;;;;8.82;5.68;;;;;;;33.73;29.86;100760.22;5015564;28;20021;-70
2022/08/14 15:07:01;;;;;;;11.30;5.68;;;;;;;34.22;28.93;100744.31;5015755;28;20054;-71
2022/08/14 15:09:26;;;;;;;6.88;5.85;;;;;;;34.13;28.86;100747.16;4997935;28;20049;-71
2022/08/14 15:11:51;;;;;;;7.38;5.70;;;;;;;33.54;29.58;100756.16;5015612;28;20336;-70
2022/08/14 15:14:19;;;;;;;12.32;5.80;;;;;;;33.62;29.82;100749.81;5015359;28;20030;-71
2022/08/14 15:16:45;;;;;;;8.77;6.13;;;;;;;33.51;29.48;100746.53;5015674;28;20030;-71
2022/08/14 15:19:10;;;;;;;8.07;5.53;;;;;;;33.56;29.46;100745.97;4997845;28;20421;-68
2022/08/14 15:21:36;;;;;;;7.88;5.70;;;;;;;33.11;30.44;100739.56;5015364;28;20108;-69
2022/08/14 15:24:03;;;;;;;6.20;5.53;;;;;;;33.02;30.68;100736.94;5015240;28;20093;-69
2022/08/14 15:26:28;;;;;;;10.15;5.78;;;;;;;33.15;30.18;100735.47;5015331;28;20022;-70
2022/08/14 15:28:53;;;;;;;7.95;5.90;;;;;;;33.51;30.09;100734.78;5015205;28;20034;-70
2022/08/14 15:31:19;;;;;;;7.60;6.13;;;;;;;33.43;30.40;100723.97;5015261;28;20393;-70
2022/08/14 15:36:28;;;;;;;8.93;5.90;;;;;;;33.38;30.94;100724.56;5015011;28;20083;-71
2022/08/14 15:38:55;;;;;;;11.25;6.22;;;;;;;33.06;30.73;100718.38;5015006;28;20552;-70
2022/08/14 15:41:20;;;;;;;9.52;6.13;;;;;;;33.13;30.35;100722.03;5015000;28;20036;-70
2022/08/14 15:43:46;;;;;;;7.63;6.28;;;;;;;32.84;30.25;100723.66;5014922;28;20385;-69
2022/08/14 15:46:12;;;;;;;8.68;5.97;;;;;;;32.75;30.47;100726.63;5014862;28;20505;-69
2022/08/14 15:48:37;;;;;;;12.70;6.32;;;;;;;32.70;30.57;100726.31;5014776;28;20022;-69
2022/08/14 15:51:03;;;;;;;7.15;6.03;;;;;;;32.47;31.01;100733.41;5014867;28;20035;-69
2022/08/14 15:53:28;;;;;;;12.73;6.30;;;;;;;32.47;31.01;100727.16;5014054;28;20086;-70
2022/08/14 15:55:55;;;;;;;8.48;6.50;;;;;;;32.59;30.75;100722.13;5014889;28;20056;-70
2022/08/14 15:58:21;;;;;;;12.80;6.25;;;;;;;32.78;30.47;100728.97;5014662;28;20109;-70
2022/08/14 16:03:31;;;;;;;9.75;5.72;;;;;;;32.62;31.68;100716.31;5015002;28;20060;-70
2022/08/14 16:05:56;;;;;;;10.95;5.43;;;;;;;32.27;34.61;100713.19;5014428;28;20160;-70
2022/08/14 16:08:22;;;;;;;14.70;5.40;;;;;;;32.03;36.84;100717.69;5014294;28;20446;-70
2022/08/14 16:10:48;;;;;;;14.38;5.25;;;;;;;32.05;37.06;100721.06;4996830;28;20080;-70
2022/08/14 16:13:14;;;;;;;13.70;4.70;;;;;;;31.78;38.11;100728.66;5014196;28;20032;-68
2022/08/14 16:15:42;;;;;;;8.27;4.68;;;;;;;31.30;39.73;100725.88;5014592;28;20018;-69
2022/08/14 16:18:17;;;;;;;12.02;4.80;;;;;;;31.41;39.92;100729.25;5014286;28;20033;-69
2022/08/14 16:20:55;;;;;;;12.93;5.30;;;;;;;31.30;39.53;100720.44;5014273;28;20054;-69
2022/08/14 16:23:26;;;;;;;9.63;5.18;;;;;;;31.25;39.80;100722.00;5014094;28;20025;-70
2022/08/14 16:25:54;;;;;;;11.32;5.30;;;;;;;31.13;40.34;100716.94;5014435;28;20077;-69
2022/08/14 16:28:21;;;;;;;14.75;5.20;;;;;;;31.55;40.11;100708.69;5014315;28;20033;-70
2022/08/14 16:30:50;;;;;;;11.45;4.43;;;;;;;31.69;39.19;100702.56;5014063;28;20026;-69
2022/08/14 16:33:18;;;;;;;10.93;4.95;;;;;;;31.66;39.13;100706.47;5013984;28;20022;-70
2022/08/14 16:35:44;;;;;;;9.15;4.93;;;;;;;31.26;38.68;100708.25;5013925;28;20073;-70
2022/08/14 16:38:14;;;;;;;10.35;5.43;;;;;;;31.03;37.49;100701.84;5013905;28;20363;-70
2022/08/14 16:40:44;;;;;;;8.37;5.37;;;;;;;30.92;37.39;100700.28;5013858;28;20040;-69
2022/08/14 16:43:10;;;;;;;12.87;5.80;;;;;;;31.34;36.38;100694.66;5014055;28;20265;-69
2022/08/14 16:45:38;;;;;;;8.88;5.40;;;;;;;31.28;35.00;100689.09;5013877;28;20431;-73
2022/08/14 16:48:09;;;;;;;8.63;5.50;;;;;;;31.33;34.88;100686.72;5013859;28;20022;-71
2022/08/14 16:50:35;;;;;;;7.82;5.10;;;;;;;31.47;34.20;100685.97;5014096;28;20040;-71
2022/08/14 16:53:01;;;;;;;6.75;5.97;;;;;;;31.06;35.06;100691.50;5014014;28;20434;-70
2022/08/14 16:55:27;;;;;;;8.60;5.95;;;;;;;30.83;36.32;100686.75;4996110;28;20034;-70
2022/08/14 16:57:54;;;;;;;9.55;5.88;;;;;;;30.88;36.65;100688.09;5013689;28;20021;-71
2022/08/14 17:00:30;;;;;;;7.30;5.82;;;;;;;30.72;37.30;100678.09;5013925;28;20507;-70
2022/08/14 17:03:05;;;;;;;9.15;5.90;;;;;;;30.57;38.32;100669.81;5013424;28;20034;-69
2022/08/14 17:05:39;;;;;;;8.20;5.05;;;;;;;30.41;38.53;100670.63;5013998;28;20109;-70
2022/08/14 17:08:05;;;;;;;9.32;5.03;;;;;;;30.21;39.17;100668.22;5013500;28;20033;-70
2022/08/14 17:10:33;;;;;;;12.65;5.10;;;;;;;30.16;39.44;100659.75;4995910;28;20072;-69
2022/08/14 17:13:18;;;;;;;7.80;5.05;;;;;;;30.10;39.88;100660.44;5013679;28;20034;-69
2022/08/14 17:16:03;;;;;;;8.63;5.10;;;;;;;29.96;40.33;100660.03;4996307;28;20489;-70
2022/08/14 17:18:40;;;;;;;11.32;5.68;;;;;;;29.91;40.73;100654.28;5013653;28;20029;-69
2022/08/14 17:21:37;;;;;;;9.38;5.15;;;;;;;29.87;41.17;100650.19;5013709;28;20052;-70
2022/08/14 17:24:11;;;;;;;15.70;4.68;;;;;;;29.94;40.92;100653.94;4969728;28;20049;-69
2022/08/14 17:26:43;;;;;;;12.05;5.20;;;;;;;29.90;41.08;100652.56;5013384;28;20052;-69
2022/08/14 17:29:13;;;;;;;10.38;4.50;;;;;;;29.70;41.96;100656.53;5013211;28;20125;-70
2022/08/14 17:31:44;;;;;;;11.38;5.05;;;;;;;29.67;41.83;100651.44;5013448;28;20389;-70
2022/08/14 17:34:12;;;;;;;9.10;4.88;;;;;;;29.58;42.12;100631.63;5013320;28;20034;-69
2022/08/14 17:36:41;;;;;;;11.85;5.18;;;;;;;29.57;42.54;100647.00;5013286;28;20113;-69
2022/08/14 17:39:11;;;;;;;11.52;4.57;;;;;;;29.50;42.59;100645.97;5013171;28;20029;-70
2022/08/14 17:41:38;;;;;;;7.80;4.50;;;;;;;29.41;42.52;100644.22;4995627;28;20030;-70
2022/08/14 17:44:15;;;;;;;10.50;4.53;;;;;;;29.37;42.88;100637.44;5013159;28;20029;-70
2022/08/14 17:46:48;;;;;;;17.23;3.80;;;;;;;29.32;42.59;100632.53;5013250;28;20072;-69
2022/08/14 17:49:21;;;;;;;11.95;4.80;;;;;;;29.18;42.58;100627.69;5013301;28;20473;-69
2022/08/14 17:52:00;;;;;;;9.00;4.47;;;;;;;29.07;43.00;100636.94;5013175;28;20033;-71
2022/08/14 17:54:27;;;;;;;19.58;4.75;;;;;;;28.94;43.21;100640.03;4995880;28;20037;-69
2022/08/14 17:56:59;;;;;;;12.10;4.32;;;;;;;28.80;43.67;100645.03;5013395;28;20053;-71
2022/08/14 17:59:27;;;;;;;14.40;4.03;;;;;;;28.71;43.55;100642.41;5012917;28;20022;-69
2022/08/14 18:02:00;;;;;;;13.02;4.40;;;;;;;28.48;43.57;100645.56;5013077;28;20100;-69
2022/08/14 18:04:31;;;;;;;12.35;3.80;;;;;;;28.34;43.94;100646.13;4995270;28;20030;-70
2022/08/14 18:06:58;;;;;;;9.02;3.80;;;;;;;28.28;43.55;100644.88;5013040;28;20117;-70
2022/08/14 18:09:24;;;;;;;13.30;4.00;;;;;;;28.18;43.71;100642.22;5012876;28;20030;-70
2022/08/14 18:11:52;;;;;;;11.52;3.30;;;;;;;28.11;43.87;100651.94;4995361;28;20432;-69
2022/08/14 18:14:21;;;;;;;11.55;3.67;;;;;;;28.04;43.78;100640.91;5012691;28;20485;-69
2022/08/14 18:16:47;;;;;;;8.63;3.50;;;;;;;27.88;44.13;100644.25;5015936;28;20513;-69
2022/08/14 18:19:20;;;;;;;9.10;3.60;;;;;;;27.83;44.07;100649.25;5016830;28;20064;-70
2022/08/14 18:21:47;;;;;;;12.23;4.22;;;;;;;27.78;44.12;100649.72;5016826;28;20105;-70
2022/08/14 18:24:12;;;;;;;9.10;3.83;;;;;;;27.63;44.98;100638.56;5016987;28;20109;-69
2022/08/14 18:26:38;;;;;;;12.57;3.58;;;;;;;27.62;44.66;100646.81;5016931;28;20053;-69
2022/08/14 18:29:04;;;;;;;10.48;3.65;;;;;;;27.53;45.04;100656.63;5016540;28;20029;-69
2022/08/14 18:31:32;;;;;;;12.95;3.47;;;;;;;27.46;45.48;100660.94;4998716;28;20038;-69
2022/08/14 18:34:06;;;;;;;16.58;4.22;;;;;;;27.33;45.44;100646.91;5016219;28;20104;-69
2022/08/14 18:36:48;;;;;;;9.20;3.95;;;;;;;27.29;45.49;100646.34;4998774;28;20120;-69
2022/08/14 18:39:32;;;;;;;7.63;3.80;;;;;;;27.21;46.52;100647.06;4998571;28;20014;-70
2022/08/14 18:42:04;;;;;;;11.07;4.07;;;;;;;27.15;47.00;100650.38;5016667;28;20437;-69
2022/08/14 18:44:52;;;;;;;9.77;3.65;;;;;;;27.05;47.11;100650.38;5016116;28;20342;-69
2022/08/14 18:47:19;;;;;;;9.57;4.13;;;;;;;26.94;48.34;100651.41;5005264;28;20029;-69
2022/08/14 18:50:22;;;;;;;13.73;3.72;;;;;;;26.88;47.10;100656.53;5016128;28;20397;-70
2022/08/14 18:53:08;;;;;;;10.70;4.25;;;;;;;26.77;48.54;100650.28;5016082;28;20033;-69
2022/08/14 18:55:34;;;;;;;7.22;3.70;;;;;;;26.66;48.40;100666.56;4997999;28;20030;-70
2022/08/14 18:57:59;;;;;;;11.20;4.30;;;;;;;26.62;48.69;100659.78;5015789;28;20389;-69
2022/08/14 19:00:28;;;;;;;8.73;4.13;;;;;;;26.46;49.53;100654.94;5015712;28;20076;-69
2022/08/14 19:02:56;;;;;;;9.45;4.38;;;;;;;26.38;50.68;100650.28;5015719;28;20018;-69
2022/08/14 19:05:40;;;;;;;10.00;4.28;;;;;;;26.31;49.79;100654.53;4997951;28;20033;-70
2022/08/14 19:08:18;;;;;;;10.82;3.75;;;;;;;26.25;49.28;100652.38;5015734;28;20026;-69
2022/08/14 19:11:10;;;;;;;13.65;3.97;;;;;;;26.19;50.33;100656.50;5015929;28;20022;-69
2022/08/14 19:13:38;;;;;;;13.80;4.60;;;;;;;26.13;50.22;100654.38;5015776;28;20037;-70
2022/08/14 19:16:10;;;;;;;7.38;4.40;;;;;;;26.09;50.86;100661.88;5015750;28;20025;-70
2022/08/14 19:18:49;;;;;;;16.00;4.90;;;;;;;26.01;50.83;100663.53;5015716;28;20507;-70
2022/08/14 19:21:27;;;;;;;11.50;4.70;;;;;;;25.95;52.19;100656.81;5015844;28;20026;-69
2022/08/14 19:24:16;;;;;;;16.58;4.45;;;;;;;25.91;51.56;100663.47;5015744;28;20043;-68
2022/08/14 19:26:50;;;;;;;16.17;4.63;;;;;;;25.84;51.05;100668.56;5015408;28;20373;-70
2022/08/14 19:29:30;;;;;;;10.38;4.50;;;;;;;25.86;51.16;100660.38;5015226;28;20030;-69
2022/08/14 19:31:57;;;;;;;9.10;4.60;;;;;;;25.87;50.98;100662.03;4997761;28;20026;-70
2022/08/14 19:34:43;;;;;;;13.98;4.85;;;;;;;25.85;50.86;100672.94;5015313;28;20032;-70
2022/08/14 19:37:32;;;;;;;7.82;4.15;;;;;;;25.83;51.33;100668.69;5015181;28;20025;-69
2022/08/14 19:39:58;;;;;;;13.25;4.60;;;;;;;25.74;51.62;100667.69;5014921;28;20029;-70
2022/08/14 19:42:26;;;;;;;13.93;4.50;;;;;;;25.72;51.99;100666.97;5015278;28;20026;-71
2022/08/14 19:44:55;;;;;;;10.23;4.45;;;;;;;25.63;52.05;100657.03;5014927;28;20033;-70
2022/08/14 19:47:33;;;;;;;12.65;4.95;;;;;;;25.58;52.16;100658.28;4997441;28;20072;-70
2022/08/14 19:49:59;;;;;;;14.02;4.68;;;;;;;25.52;52.25;100664.19;5015071;28;20405;-69
2022/08/14 19:52:27;;;;;;;19.77;4.15;;;;;;;25.55;52.28;100673.81;5015191;28;20030;-70
2022/08/14 19:54:53;;;;;;;10.82;4.47;;;;;;;25.53;52.85;100668.59;5014784;28;20026;-70
